Time;durP1;ratioP1;P1;durP2;ratioP2;P2;SDS_P1;SDS_P2;PMS_P1;PMS_P2;Temp;Humidity;BMP_temperature;BMP_pressure;BME280_temperature;BME280_humidity;BME280_pressure;Samples;Min_cycle;Max_cycle;Signal;HPM_P1;HPM_P2
2021/04/27 00:02:19;;;;;;;5.10;3.00;;;;;;;6.28;100.00;101524.55;1871991;75;26676;-79
2021/04/27 00:04:49;;;;;;;7.87;3.00;;;;;;;6.21;100.00;101518.83;1872143;77;26307;-80
2021/04/27 00:07:19;;;;;;;6.27;2.80;;;;;;;6.23;100.00;101521.67;1872192;77;26233;-79
2021/04/27 00:09:49;;;;;;;6.53;3.00;;;;;;;6.25;100.00;101515.36;1872173;75;26303;-80
2021/04/27 00:12:19;;;;;;;9.90;3.43;;;;;;;6.27;100.00;101516.51;1872359;77;26719;-79
2021/04/27 00:14:48;;;;;;;4.63;3.03;;;;;;;6.40;100.00;101514.34;1873154;77;26200;-79
2021/04/27 00:17:18;;;;;;;5.67;2.80;;;;;;;6.26;100.00;101504.63;1872616;77;26307;-79
2021/04/27 00:19:48;;;;;;;5.40;3.87;;;;;;;6.33;100.00;101512.80;1873001;77;26711;-79
2021/04/27 00:22:18;;;;;;;4.17;2.83;;;;;;;6.10;100.00;101515.55;1872382;77;26276;-79
2021/04/27 00:24:48;;;;;;;5.43;3.10;;;;;;;5.94;100.00;101499.19;1872371;77;26315;-79
2021/04/27 00:27:18;;;;;;;5.60;3.10;;;;;;;6.00;100.00;101498.75;1872283;77;26342;-79
2021/04/27 00:29:48;;;;;;;4.70;3.17;;;;;;;5.94;100.00;101489.00;1872661;77;26747;-79
2021/04/27 00:32:17;;;;;;;3.53;3.00;;;;;;;6.01;100.00;101495.77;1872255;77;26292;-80
2021/04/27 00:34:47;;;;;;;5.23;3.33;;;;;;;6.23;100.00;101492.70;1872012;77;26259;-80
2021/04/27 00:37:17;;;;;;;4.47;3.00;;;;;;;6.17;100.00;101492.81;1872054;77;26757;-80
2021/04/27 00:39:47;;;;;;;8.30;3.90;;;;;;;6.04;100.00;101487.53;1872528;77;26759;-80
2021/04/27 00:42:17;;;;;;;5.77;3.00;;;;;;;5.84;100.00;101487.87;1872623;77;26800;-80
2021/04/27 00:44:47;;;;;;;4.47;3.03;;;;;;;6.00;100.00;101487.72;1872442;77;26209;-80
2021/04/27 00:47:17;;;;;;;5.43;3.10;;;;;;;5.83;100.00;101488.40;1872665;77;26233;-79
2021/04/27 00:49:46;;;;;;;4.60;2.93;;;;;;;5.44;100.00;101478.87;1872616;77;26209;-80
2021/04/27 00:52:17;;;;;;;7.17;3.33;;;;;;;5.52;100.00;101473.55;1872240;77;26263;-80
2021/04/27 00:54:47;;;;;;;4.20;3.07;;;;;;;5.59;100.00;101473.45;1872238;77;26207;-80
2021/04/27 00:57:17;;;;;;;6.37;3.57;;;;;;;5.68;100.00;101472.03;1872170;77;26282;-79
2021/04/27 00:59:46;;;;;;;5.83;3.10;;;;;;;5.61;100.00;101468.53;1872489;77;26241;-79
2021/04/27 01:02:16;;;;;;;4.40;2.87;;;;;;;5.86;100.00;101465.05;1872468;75;26699;-79
2021/04/27 01:04:46;;;;;;;4.17;3.10;;;;;;;5.82;100.00;101461.06;1872071;76;26196;-79
2021/04/27 01:07:19;;;;;;;4.80;2.87;;;;;;;5.80;100.00;101453.05;1872058;77;26798;-79
2021/04/27 01:09:53;;;;;;;6.37;3.27;;;;;;;5.45;100.00;101456.30;1871965;77;26325;-81
2021/04/27 01:12:26;;;;;;;7.10;4.47;;;;;;;5.45;100.00;101457.67;1872079;77;26228;-79
2021/04/27 01:15:01;;;;;;;5.87;3.33;;;;;;;5.65;100.00;101461.50;1871129;76;26271;-80
2021/04/27 01:17:35;;;;;;;3.83;3.10;;;;;;;5.09;100.00;101462.80;1872422;77;26216;-79
2021/04/27 01:20:13;;;;;;;5.33;3.70;;;;;;;4.79;100.00;101459.20;1872244;77;26245;-79
2021/04/27 01:22:57;;;;;;;8.40;3.67;;;;;;;4.96;100.00;101460.23;1871999;77;26177;-79
2021/04/27 01:25:32;;;;;;;6.20;3.80;;;;;;;4.96;100.00;101454.17;1872264;77;26218;-79
2021/04/27 01:28:04;;;;;;;7.27;3.83;;;;;;;5.01;100.00;101447.96;1871963;76;26233;-79
2021/04/27 01:30:39;;;;;;;7.37;4.07;;;;;;;4.99;100.00;101443.24;1872295;77;26647;-79
2021/04/27 01:33:11;;;;;;;5.87;3.73;;;;;;;4.95;100.00;101439.28;1872134;77;26723;-79
2021/04/27 01:35:42;;;;;;;6.07;3.83;;;;;;;5.12;100.00;101438.08;1872080;77;26225;-79
2021/04/27 01:38:13;;;;;;;6.53;3.67;;;;;;;5.21;100.00;101431.16;1872636;77;26326;-78
2021/04/27 01:40:44;;;;;;;5.93;4.20;;;;;;;4.99;100.00;101431.70;1873160;77;26324;-77
2021/04/27 01:43:15;;;;;;;7.40;3.93;;;;;;;5.05;100.00;101424.39;1873308;77;26707;-78
2021/04/27 01:45:46;;;;;;;9.23;4.23;;;;;;;5.04;100.00;101425.48;1872279;77;26696;-78
2021/04/27 01:48:16;;;;;;;6.97;4.20;;;;;;;5.07;100.00;101417.28;1872255;77;26201;-78
2021/04/27 01:50:46;;;;;;;5.10;3.97;;;;;;;5.05;100.00;101416.13;1872184;77;26304;-78
2021/04/27 01:53:17;;;;;;;5.53;3.70;;;;;;;5.24;100.00;101415.53;1872059;77;26676;-78
2021/04/27 01:55:47;;;;;;;8.03;4.00;;;;;;;4.94;100.00;101419.17;1872082;77;26295;-78
2021/04/27 01:58:18;;;;;;;6.13;4.27;;;;;;;4.77;100.00;101414.02;1871863;77;26212;-78
2021/04/27 02:00:48;;;;;;;4.67;3.83;;;;;;;4.74;100.00;101404.02;1871897;77;26688;-78
2021/04/27 02:03:18;;;;;;;6.37;4.43;;;;;;;4.69;100.00;101404.72;1871903;75;26264;-78
2021/04/27 02:05:47;;;;;;;5.63;4.50;;;;;;;4.68;100.00;101407.69;1871893;77;26809;-78
2021/04/27 02:08:17;;;;;;;5.57;4.23;;;;;;;4.77;100.00;101404.92;1872001;77;26695;-79
2021/04/27 02:10:48;;;;;;;7.07;4.63;;;;;;;5.09;100.00;101409.64;1872036;75;26276;-80
2021/04/27 02:13:20;;;;;;;7.90;4.90;;;;;;;5.27;100.00;101397.99;1872031;77;26742;-80
2021/04/27 02:15:50;;;;;;;10.43;4.83;;;;;;;4.86;100.00;101394.73;1871965;77;26343;-80
2021/04/27 02:18:23;;;;;;;7.97;4.50;;;;;;;4.71;100.00;101386.58;1871865;77;26257;-79
2021/04/27 02:20:55;;;;;;;6.70;4.87;;;;;;;4.71;100.00;101386.58;1871967;77;26691;-80
2021/04/27 02:23:25;;;;;;;8.53;5.03;;;;;;;4.69;100.00;101379.95;1871867;77;26674;-80
2021/04/27 02:25:56;;;;;;;7.33;4.87;;;;;;;4.89;100.00;101387.91;1872005;77;26205;-80
2021/04/27 02:28:27;;;;;;;7.47;4.83;;;;;;;4.64;100.00;101383.09;1871959;77;26769;-80
2021/04/27 02:30:59;;;;;;;14.47;6.20;;;;;;;4.50;100.00;101389.30;1872003;77;26294;-80
2021/04/27 02:33:30;;;;;;;7.40;5.10;;;;;;;4.36;100.00;101389.20;1872119;77;26225;-79
2021/04/27 02:36:00;;;;;;;6.10;4.60;;;;;;;4.32;100.00;101383.30;1871968;77;26798;-80
2021/04/27 02:38:29;;;;;;;6.63;5.20;;;;;;;4.31;100.00;101382.17;1872031;77;26256;-81
2021/04/27 02:41:00;;;;;;;5.70;5.07;;;;;;;4.38;100.00;101387.88;1872028;77;26304;-81
2021/04/27 02:43:30;;;;;;;9.63;6.07;;;;;;;4.33;100.00;101379.48;1871988;77;26245;-80
2021/04/27 02:46:00;;;;;;;9.83;5.83;;;;;;;4.34;100.00;101380.32;1871994;77;26241;-80
2021/04/27 02:48:29;;;;;;;7.03;6.00;;;;;;;4.47;100.00;101370.52;1872008;77;26784;-78
2021/04/27 02:51:01;;;;;;;7.17;6.07;;;;;;;4.37;100.00;101376.56;1871788;77;26267;-78
2021/04/27 02:53:31;;;;;;;9.67;6.20;;;;;;;4.32;100.00;101375.04;1871896;77;26793;-78
2021/04/27 02:56:01;;;;;;;7.50;6.37;;;;;;;4.63;100.00;101373.99;1871858;77;26354;-77
2021/04/27 02:58:30;;;;;;;10.87;6.87;;;;;;;5.02;100.00;101373.41;1871926;77;26264;-78
2021/04/27 03:01:00;;;;;;;7.57;5.70;;;;;;;5.25;100.00;101372.62;1871936;77;26236;-78
2021/04/27 03:03:30;;;;;;;9.87;6.20;;;;;;;5.18;100.00;101368.30;1871818;75;26247;-77
2021/04/27 03:06:00;;;;;;;10.43;5.73;;;;;;;4.45;100.00;101367.99;1871890;77;26197;-77
2021/04/27 03:08:30;;;;;;;9.77;6.03;;;;;;;4.34;100.00;101367.95;1871911;77;26754;-78
2021/04/27 03:11:00;;;;;;;11.47;6.03;;;;;;;4.20;100.00;101367.80;1871883;75;26285;-77
2021/04/27 03:13:30;;;;;;;7.57;6.20;;;;;;;4.57;100.00;101359.81;1871964;77;26732;-77
2021/04/27 03:16:00;;;;;;;11.13;6.37;;;;;;;4.96;100.00;101353.69;1871788;77;26196;-77
2021/04/27 03:18:29;;;;;;;8.37;5.73;;;;;;;5.00;100.00;101360.96;1871789;77;26664;-77
2021/04/27 03:21:00;;;;;;;8.43;5.50;;;;;;;4.56;100.00;101354.00;1871967;76;26200;-77
2021/04/27 03:23:29;;;;;;;7.10;5.67;;;;;;;4.46;100.00;101349.05;1872002;77;26245;-77
2021/04/27 03:26:00;;;;;;;8.40;5.97;;;;;;;4.52;100.00;101343.16;1871905;77;26215;-77
2021/04/27 03:28:30;;;;;;;10.27;6.00;;;;;;;4.27;100.00;101337.80;1872016;77;26303;-78
2021/04/27 03:31:00;;;;;;;9.00;6.30;;;;;;;4.16;100.00;101334.44;1872934;77;26196;-79
2021/04/27 03:33:30;;;;;;;8.30;5.90;;;;;;;4.14;100.00;101324.22;1872276;77;26240;-78
2021/04/27 03:36:00;;;;;;;7.33;5.77;;;;;;;4.00;100.00;101331.80;1872313;77;26225;-78
2021/04/27 03:38:29;;;;;;;7.60;5.73;;;;;;;3.88;100.00;101327.30;1872364;77;26213;-77
2021/04/27 03:41:00;;;;;;;7.03;5.40;;;;;;;3.82;100.00;101328.20;1871993;77;26278;-78
2021/04/27 03:43:29;;;;;;;8.53;5.83;;;;;;;3.82;100.00;101324.92;1871746;77;26222;-78
2021/04/27 03:46:16;;;;;;;9.70;6.57;;;;;;;3.68;100.00;101322.86;1813243;79;33169;-80
2021/04/27 03:48:46;;;;;;;9.00;6.60;;;;;;;3.69;100.00;101325.07;1765595;81;26285;-79
2021/04/27 03:51:16;;;;;;;12.63;7.57;;;;;;;3.55;100.00;101325.75;1765691;81;26300;-80
2021/04/27 03:53:46;;;;;;;9.77;6.77;;;;;;;3.59;100.00;101317.36;1788361;80;26772;-79
2021/04/27 03:56:16;;;;;;;9.30;6.70;;;;;;;3.48;100.00;101314.00;1813767;79;26223;-78
2021/04/27 03:58:46;;;;;;;10.37;7.13;;;;;;;3.62;100.00;101310.58;1765371;81;26242;-79
2021/04/27 04:01:16;;;;;;;11.83;7.00;;;;;;;3.73;100.00;101311.19;1776203;80;932784;-78
2021/04/27 04:03:46;;;;;;;10.60;6.87;;;;;;;3.63;100.00;101310.37;1814281;78;26248;-77
2021/04/27 04:06:16;;;;;;;9.47;7.23;;;;;;;3.99;100.00;101308.66;1765852;81;26234;-78
2021/04/27 04:08:46;;;;;;;8.53;6.87;;;;;;;3.99;100.00;101303.16;1765814;81;26385;-77
2021/04/27 04:11:16;;;;;;;8.77;6.30;;;;;;;3.68;100.00;101304.16;1788467;80;26282;-80
2021/04/27 04:13:46;;;;;;;7.97;6.83;;;;;;;3.57;100.00;101305.77;1814070;79;26216;-79
2021/04/27 04:16:16;;;;;;;8.43;6.97;;;;;;;3.54;100.00;101302.13;1765738;80;26362;-79
2021/04/27 04:18:45;;;;;;;10.67;7.90;;;;;;;3.57;100.00;101300.81;1822234;79;26663;-80
2021/04/27 04:21:15;;;;;;;11.23;6.50;;;;;;;3.52;100.00;101300.12;1872118;77;26316;-79
2021/04/27 04:23:46;;;;;;;11.63;6.90;;;;;;;3.57;100.00;101293.95;1824062;79;26203;-79
2021/04/27 04:26:16;;;;;;;8.77;7.13;;;;;;;3.57;100.00;101297.53;1846996;78;26205;-80
2021/04/27 04:28:46;;;;;;;11.87;7.53;;;;;;;3.73;100.00;101290.58;1872151;77;26210;-79
2021/04/27 04:31:16;;;;;;;9.20;6.70;;;;;;;3.71;100.00;101284.49;1872100;77;26218;-80
2021/04/27 04:33:46;;;;;;;8.93;7.27;;;;;;;3.59;100.00;101283.02;1872177;77;26689;-79
2021/04/27 04:36:16;;;;;;;10.03;7.30;;;;;;;3.46;100.00;101274.96;1872345;77;26209;-80
2021/04/27 04:38:46;;;;;;;9.50;7.23;;;;;;;3.43;100.00;101286.91;1871989;77;26291;-79
2021/04/27 04:41:16;;;;;;;8.17;6.53;;;;;;;3.28;100.00;101285.08;1872222;77;26673;-80
2021/04/27 04:43:45;;;;;;;7.73;6.70;;;;;;;3.21;100.00;101283.22;1872223;77;26213;-80
2021/04/27 04:46:15;;;;;;;8.00;7.03;;;;;;;3.16;100.00;101287.20;1872473;77;26308;-80
2021/04/27 04:48:45;;;;;;;8.70;6.87;;;;;;;3.34;100.00;101285.55;1872352;77;26716;-80
2021/04/27 04:51:15;;;;;;;9.97;6.97;;;;;;;3.54;100.00;101277.40;1872360;77;26188;-80
2021/04/27 04:53:45;;;;;;;8.67;6.83;;;;;;;3.03;100.00;101277.72;1872273;77;26724;-80
2021/04/27 04:56:15;;;;;;;8.97;7.23;;;;;;;3.18;100.00;101282.84;1872290;77;26781;-80
2021/04/27 04:58:45;;;;;;;8.33;6.90;;;;;;;3.25;100.00;101282.27;1871932;77;26213;-81
2021/04/27 05:01:14;;;;;;;10.20;8.10;;;;;;;3.23;100.00;101278.05;1872079;77;26233;-81
2021/04/27 05:03:44;;;;;;;16.50;8.10;;;;;;;3.23;100.00;101276.67;1872049;75;26723;-81
2021/04/27 05:06:16;;;;;;;13.57;8.57;;;;;;;3.62;100.00;101280.37;1872267;77;26221;-80
2021/04/27 05:08:48;;;;;;;11.73;9.23;;;;;;;3.70;100.00;101277.31;1872363;77;26303;-80
2021/04/27 05:11:18;;;;;;;14.40;9.10;;;;;;;4.15;100.00;101265.96;1822402;79;26394;-80
2021/04/27 05:13:48;;;;;;;10.70;8.67;;;;;;;4.23;100.00;101268.38;1849273;78;26189;-79
2021/04/27 05:16:18;;;;;;;12.10;8.37;;;;;;;3.71;100.00;101268.54;1873325;77;26225;-78
2021/04/27 05:18:48;;;;;;;10.93;8.23;;;;;;;3.69;100.00;101271.50;1873562;77;26196;-80
2021/04/27 05:21:18;;;;;;;11.33;9.13;;;;;;;3.73;100.00;101271.88;1872229;77;26196;-80
2021/04/27 05:23:48;;;;;;;11.33;7.90;;;;;;;3.81;100.00;101266.91;1872204;77;26255;-80
2021/04/27 05:26:18;;;;;;;12.67;8.20;;;;;;;3.78;100.00;101269.28;1872272;77;26229;-79
2021/04/27 05:28:49;;;;;;;11.40;8.87;;;;;;;3.78;100.00;101266.54;1872329;77;26676;-80
2021/04/27 05:31:19;;;;;;;10.17;8.03;;;;;;;3.77;100.00;101267.59;1872275;77;26239;-80
2021/04/27 05:33:49;;;;;;;15.03;9.27;;;;;;;3.82;100.00;101269.12;1872516;77;26218;-80
2021/04/27 05:36:19;;;;;;;13.10;8.80;;;;;;;4.19;100.00;101265.80;1872049;77;26267;-79
2021/04/27 05:38:48;;;;;;;12.87;8.50;;;;;;;4.53;100.00;101259.03;1872012;77;26229;-80
2021/04/27 05:41:18;;;;;;;13.43;8.33;;;;;;;4.61;100.00;101253.72;1872098;77;26646;-80
2021/04/27 05:43:48;;;;;;;12.50;8.57;;;;;;;4.66;100.00;101253.02;1872055;77;26697;-80
2021/04/27 05:46:18;;;;;;;12.53;8.50;;;;;;;4.41;100.00;101258.14;1872214;77;26226;-80
2021/04/27 05:48:48;;;;;;;11.33;8.40;;;;;;;4.40;100.00;101255.11;1872125;77;26214;-79
2021/04/27 05:51:18;;;;;;;12.07;8.50;;;;;;;4.48;100.00;101253.94;1872211;77;26217;-79
2021/04/27 05:53:47;;;;;;;14.27;9.20;;;;;;;4.67;100.00;101261.55;1871952;77;26258;-79
2021/04/27 05:56:17;;;;;;;13.43;8.43;;;;;;;4.71;100.00;101261.38;1871906;77;26615;-79
2021/04/27 05:58:48;;;;;;;13.03;8.60;;;;;;;4.45;100.00;101254.41;1872045;77;26228;-78
2021/04/27 06:01:18;;;;;;;10.90;8.70;;;;;;;4.63;100.00;101257.59;1871935;77;26667;-79
2021/04/27 06:03:48;;;;;;;10.70;7.97;;;;;;;4.77;100.00;101257.16;1871991;75;26331;-78
2021/04/27 06:06:18;;;;;;;10.40;8.50;;;;;;;4.68;100.00;101255.82;1872276;77;26222;-79
2021/04/27 06:08:47;;;;;;;11.73;8.37;;;;;;;4.53;100.00;101253.54;1872097;77;26303;-78
2021/04/27 06:11:17;;;;;;;12.30;8.93;;;;;;;5.01;100.00;101249.20;1871972;77;26228;-78
2021/04/27 06:13:47;;;;;;;14.30;9.07;;;;;;;5.14;100.00;101249.51;1871849;75;26782;-79
2021/04/27 06:16:17;;;;;;;12.80;9.57;;;;;;;5.18;100.00;101251.27;1872310;76;26258;-80
2021/04/27 06:18:47;;;;;;;11.70;9.13;;;;;;;5.24;100.00;101244.78;1871957;77;26688;-79
2021/04/27 06:21:17;;;;;;;10.77;8.53;;;;;;;5.39;100.00;101245.95;1871975;77;26205;-79
2021/04/27 06:23:47;;;;;;;11.23;8.63;;;;;;;5.26;100.00;101242.08;1872020;77;26296;-79
2021/04/27 06:26:17;;;;;;;15.67;8.40;;;;;;;5.42;100.00;101248.25;1872003;77;26209;-77
2021/04/27 06:28:47;;;;;;;13.30;9.17;;;;;;;5.39;100.00;101245.14;1871888;77;26208;-78
2021/04/27 06:31:18;;;;;;;11.50;9.10;;;;;;;5.40;100.00;101244.04;1872532;77;26236;-78
2021/04/27 06:33:49;;;;;;;10.83;7.60;;;;;;;5.56;100.00;101239.19;1872025;77;26684;-78
2021/04/27 06:36:19;;;;;;;11.87;7.23;;;;;;;5.77;100.00;101239.08;1871936;77;26323;-78
2021/04/27 06:38:48;;;;;;;10.63;7.37;;;;;;;5.80;100.00;101231.69;1872015;77;26700;-78
2021/04/27 06:41:18;;;;;;;11.27;8.43;;;;;;;5.81;100.00;101231.98;1871983;77;26196;-77
2021/04/27 06:43:49;;;;;;;14.33;8.07;;;;;;;5.88;100.00;101231.33;1872106;77;26668;-77
2021/04/27 06:46:20;;;;;;;11.70;7.63;;;;;;;5.95;100.00;101219.06;1871949;77;26758;-78
2021/04/27 06:48:50;;;;;;;12.70;8.10;;;;;;;5.93;100.00;101207.47;1872074;77;26692;-77
2021/04/27 06:51:21;;;;;;;10.50;7.93;;;;;;;5.98;100.00;101210.86;1871897;77;26225;-79
2021/04/27 06:53:51;;;;;;;11.07;8.70;;;;;;;6.07;100.00;101208.01;1871807;77;26216;-78
2021/04/27 06:56:22;;;;;;;13.50;7.93;;;;;;;6.10;100.00;101204.75;1871887;77;26230;-78
2021/04/27 06:58:52;;;;;;;13.03;8.33;;;;;;;5.98;100.00;101198.45;1871909;77;26314;-80
2021/04/27 07:01:22;;;;;;;9.23;7.73;;;;;;;6.16;100.00;101209.83;1871729;77;26208;-79
2021/04/27 07:03:53;;;;;;;12.63;8.33;;;;;;;6.41;100.00;101189.59;1872069;75;26323;-79
2021/04/27 07:06:23;;;;;;;10.70;6.90;;;;;;;6.45;100.00;101178.88;1871954;77;26229;-79
2021/04/27 07:08:52;;;;;;;12.53;8.17;;;;;;;6.55;100.00;101171.59;1871789;77;26809;-79
2021/04/27 07:11:22;;;;;;;11.77;8.13;;;;;;;6.88;100.00;101158.87;1871823;77;26201;-79
2021/04/27 07:13:52;;;;;;;13.17;7.40;;;;;;;7.21;100.00;101161.56;1871838;76;26273;-79
2021/04/27 07:16:22;;;;;;;13.83;8.70;;;;;;;7.38;100.00;101159.58;1871930;77;26204;-79
2021/04/27 07:18:52;;;;;;;13.93;8.17;;;;;;;7.43;100.00;101162.96;1871977;77;26225;-79
2021/04/27 07:21:23;;;;;;;11.43;8.30;;;;;;;7.61;100.00;101161.26;1871834;77;26764;-79
2021/04/27 07:23:52;;;;;;;12.07;8.67;;;;;;;7.63;100.00;101161.28;1871985;77;26212;-79
2021/04/27 07:26:22;;;;;;;12.87;8.10;;;;;;;7.73;100.00;101156.42;1871769;77;26611;-79
2021/04/27 07:28:52;;;;;;;14.40;8.87;;;;;;;8.01;100.00;101149.80;1872048;77;26314;-79
2021/04/27 07:31:22;;;;;;;14.03;8.83;;;;;;;8.00;100.00;101146.19;1872029;76;26225;-79
2021/04/27 07:33:52;;;;;;;12.00;8.33;;;;;;;8.11;100.00;101151.30;1871786;77;26660;-79
2021/04/27 07:36:23;;;;;;;11.83;8.43;;;;;;;8.24;100.00;101146.72;1871921;77;26734;-80
2021/04/27 07:38:53;;;;;;;12.97;8.33;;;;;;;8.07;100.00;101141.84;1872025;77;26325;-80
2021/04/27 07:41:22;;;;;;;12.00;8.67;;;;;;;8.11;100.00;101140.23;1871947;77;26671;-80
2021/04/27 07:43:53;;;;;;;12.10;9.60;;;;;;;8.19;100.00;101139.20;1872042;77;26311;-79
2021/04/27 07:46:23;;;;;;;10.40;7.73;;;;;;;8.68;100.00;101128.02;1871914;77;26364;-80
2021/04/27 07:48:53;;;;;;;10.87;8.90;;;;;;;8.91;100.00;101129.00;1871995;77;26766;-79
2021/04/27 07:51:23;;;;;;;11.03;8.10;;;;;;;8.73;100.00;101133.58;1871889;77;26270;-79
2021/04/27 07:53:53;;;;;;;15.53;8.70;;;;;;;8.85;100.00;101124.55;1871920;77;26229;-80
2021/04/27 07:56:23;;;;;;;10.47;7.67;;;;;;;8.77;100.00;101120.05;1872093;77;26283;-80
2021/04/27 07:58:53;;;;;;;11.77;7.90;;;;;;;8.71;100.00;101126.09;1872051;77;26664;-79
2021/04/27 08:01:23;;;;;;;10.43;7.73;;;;;;;8.83;100.00;101124.51;1872110;77;26244;-79
2021/04/27 08:03:53;;;;;;;14.43;8.20;;;;;;;9.26;100.00;101115.05;1872009;75;26797;-79
2021/04/27 08:06:23;;;;;;;13.03;8.23;;;;;;;9.20;100.00;101116.16;1871984;77;26240;-79
2021/04/27 08:08:53;;;;;;;12.83;8.80;;;;;;;9.20;100.00;101123.89;1871974;77;26282;-79
2021/04/27 08:11:23;;;;;;;9.70;8.10;;;;;;;9.52;100.00;101115.45;1871983;77;26241;-79
2021/04/27 08:13:53;;;;;;;12.23;8.53;;;;;;;9.40;100.00;101112.91;1871975;77;26260;-79
2021/04/27 08:16:23;;;;;;;12.87;9.03;;;;;;;9.39;100.00;101112.63;1871876;75;26197;-79
2021/04/27 08:18:53;;;;;;;18.70;8.67;;;;;;;9.47;100.00;101114.87;1871817;77;26330;-79
2021/04/27 08:21:24;;;;;;;9.73;8.20;;;;;;;9.45;100.00;101108.78;1872009;77;26208;-79
2021/04/27 08:23:54;;;;;;;12.53;8.53;;;;;;;9.31;100.00;101108.16;1872155;77;26244;-79
2021/04/27 08:26:25;;;;;;;12.37;8.10;;;;;;;9.51;100.00;101108.23;1872024;77;26293;-79
2021/04/27 08:28:55;;;;;;;11.77;8.43;;;;;;;10.16;100.00;101101.19;1872008;77;26220;-79
2021/04/27 08:31:25;;;;;;;12.37;8.47;;;;;;;10.43;100.00;101092.05;1871945;77;26314;-79
2021/04/27 08:33:55;;;;;;;12.13;7.87;;;;;;;10.37;100.00;101087.59;1872152;77;26805;-80
2021/04/27 08:36:25;;;;;;;9.97;8.30;;;;;;;10.31;100.00;101094.28;1872554;77;26239;-82
2021/04/27 08:38:56;;;;;;;12.90;7.97;;;;;;;10.22;100.00;101094.00;1872151;77;26797;-82
2021/04/27 08:41:27;;;;;;;10.03;7.53;;;;;;;10.20;100.00;101097.59;1872221;77;26255;-83
2021/04/27 08:43:57;;;;;;;13.07;8.17;;;;;;;10.24;100.00;101092.31;1872348;77;26236;-82
2021/04/27 08:46:27;;;;;;;11.40;8.23;;;;;;;10.68;100.00;101091.19;1872340;77;26314;-81
2021/04/27 08:48:57;;;;;;;11.00;8.10;;;;;;;10.51;100.00;101088.70;1872454;77;26287;-82
2021/04/27 08:51:27;;;;;;;11.20;8.53;;;;;;;10.45;100.00;101089.80;1872420;77;26732;-82
2021/04/27 08:53:57;;;;;;;12.03;8.53;;;;;;;10.32;100.00;101083.42;1872363;77;26303;-83
2021/04/27 08:56:27;;;;;;;11.83;8.90;;;;;;;10.96;100.00;101081.67;1872303;77;26299;-82
2021/04/27 08:58:56;;;;;;;12.73;8.30;;;;;;;10.89;100.00;101084.47;1872227;77;26193;-77
2021/04/27 09:01:28;;;;;;;13.63;8.27;;;;;;;11.01;100.00;101068.87;1872309;77;26679;-80
2021/04/27 09:03:59;;;;;;;11.30;8.77;;;;;;;11.08;100.00;101073.59;1872378;75;26357;-81
2021/04/27 09:06:29;;;;;;;13.33;8.80;;;;;;;10.88;100.00;101071.13;1872211;77;26644;-79
2021/04/27 09:08:59;;;;;;;14.33;8.73;;;;;;;10.98;100.00;101067.50;1872275;77;26274;-80
2021/04/27 09:11:32;;;;;;;11.77;7.73;;;;;;;11.01;100.00;101061.92;1872173;77;26746;-80
2021/04/27 09:14:15;;;;;;;12.50;7.63;;;;;;;11.43;100.00;101052.56;1872152;77;26229;-79
2021/04/27 09:16:50;;;;;;;11.57;7.93;;;;;;;11.45;100.00;101054.52;1872220;77;26687;-79
2021/04/27 09:19:39;;;;;;;8.10;7.20;;;;;;;11.38;100.00;101056.78;1872183;77;26258;-79
2021/04/27 09:22:16;;;;;;;11.23;7.23;;;;;;;11.52;100.00;101050.02;1871982;77;26753;-79
2021/04/27 09:24:48;;;;;;;9.77;7.00;;;;;;;11.54;100.00;101044.45;1872216;77;26376;-79
2021/04/27 09:27:30;;;;;;;11.30;7.30;;;;;;;11.75;100.00;101040.45;1872075;77;26672;-78
2021/04/27 09:30:11;;;;;;;9.83;6.70;;;;;;;11.99;100.00;101042.50;1872069;77;26241;-79
2021/04/27 09:32:42;;;;;;;12.00;7.10;;;;;;;11.89;100.00;101040.64;1872004;77;26208;-78
2021/04/27 09:35:31;;;;;;;10.37;6.77;;;;;;;11.69;100.00;101027.65;1872228;77;26645;-78
2021/04/27 09:38:19;;;;;;;11.73;7.27;;;;;;;11.86;100.00;101024.50;1872061;77;26213;-78
2021/04/27 09:40:58;;;;;;;10.83;6.63;;;;;;;11.98;100.00;101026.94;1872084;77;26283;-78
2021/04/27 09:43:32;;;;;;;8.77;5.80;;;;;;;12.05;100.00;101014.34;1871963;77;26200;-78
2021/04/27 09:46:04;;;;;;;5.93;4.60;;;;;;;12.23;100.00;101012.80;1872115;77;26703;-78
2021/04/27 09:48:37;;;;;;;7.47;5.70;;;;;;;12.41;100.00;101012.64;1872047;77;26217;-79
2021/04/27 09:51:27;;;;;;;5.00;2.60;;;;;;;12.54;100.00;101008.58;1872286;77;26232;-78
2021/04/27 09:53:58;;;;;;;8.97;5.67;;;;;;;12.49;100.00;101013.39;1872061;77;26358;-79
2021/04/27 09:56:54;;;;;;;10.10;5.37;;;;;;;12.62;100.00;101009.91;1872189;77;26225;-78
2021/04/27 09:59:28;;;;;;;8.47;5.83;;;;;;;12.68;100.00;101011.50;1870519;76;26249;-79
2021/04/27 10:02:01;;;;;;;7.70;5.43;;;;;;;12.81;100.00;101001.05;1872180;75;26702;-79
2021/04/27 10:04:32;;;;;;;11.40;6.60;;;;;;;12.74;100.00;101001.41;1872207;77;26315;-83
2021/04/27 10:07:03;;;;;;;9.87;5.70;;;;;;;12.87;100.00;100997.08;1872352;77;26306;-83
2021/04/27 10:09:35;;;;;;;8.80;5.63;;;;;;;12.82;100.00;100990.73;1872278;77;26691;-83
2021/04/27 10:12:08;;;;;;;8.03;4.03;;;;;;;12.71;100.00;100991.39;1872275;77;26232;-83
2021/04/27 10:14:38;;;;;;;6.97;4.40;;;;;;;13.10;100.00;100982.83;1872390;77;26245;-83
2021/04/27 10:17:16;;;;;;;5.87;4.20;;;;;;;13.89;100.00;100972.22;1872214;76;26277;-82
2021/04/27 10:19:43;;;;;;;7.07;4.70;;;;;;;14.19;100.00;100963.88;1871326;76;26244;-82
2021/04/27 10:22:26;;;;;;;7.20;4.90;;;;;;;14.08;100.00;100964.61;1872240;77;26639;-83
2021/04/27 10:24:59;;;;;;;10.80;5.77;;;;;;;13.41;100.00;100963.19;1869874;76;26335;-81
2021/04/27 10:27:30;;;;;;;8.27;5.63;;;;;;;13.37;100.00;100965.48;1872162;77;26232;-81
2021/04/27 10:30:22;;;;;;;7.23;4.40;;;;;;;13.54;100.00;100961.60;1872210;77;26311;-81
2021/04/27 10:33:10;;;;;;;5.60;5.10;;;;;;;13.53;100.00;100966.91;1872067;77;26318;-81
2021/04/27 10:35:42;;;;;;;6.47;4.80;;;;;;;13.68;100.00;100954.13;1872535;77;26229;-82
2021/04/27 10:38:16;;;;;;;10.47;5.13;;;;;;;14.05;100.00;100940.66;1872170;77;26327;-81
2021/04/27 10:41:01;;;;;;;8.20;4.73;;;;;;;13.93;100.00;100939.75;1872433;77;26213;-81
2021/04/27 10:43:47;;;;;;;5.53;4.33;;;;;;;13.49;100.00;100949.95;1872370;76;26231;-82
2021/04/27 10:46:48;;;;;;;8.10;4.80;;;;;;;13.59;100.00;100939.20;1871932;76;26333;-81
2021/04/27 10:49:32;;;;;;;7.83;5.00;;;;;;;13.80;100.00;100936.34;1872339;76;26327;-82
2021/04/27 10:52:05;;;;;;;9.63;5.03;;;;;;;13.92;100.00;100932.50;1872354;77;26217;-81
2021/04/27 10:54:41;;;;;;;6.53;4.77;;;;;;;13.71;100.00;100932.58;1872172;77;26334;-81
2021/04/27 10:57:18;;;;;;;5.33;4.67;;;;;;;13.84;100.00;100930.97;1872312;77;26679;-82
2021/04/27 10:59:55;;;;;;;8.33;5.03;;;;;;;13.79;100.00;100929.66;1872163;77;26280;-81
2021/04/27 11:02:28;;;;;;;7.20;5.03;;;;;;;13.59;100.00;100923.84;1872022;75;26306;-81
2021/04/27 11:05:01;;;;;;;6.83;4.90;;;;;;;13.82;100.00;100923.48;1872146;77;26268;-81
2021/04/27 11:07:39;;;;;;;8.40;5.03;;;;;;;13.63;100.00;100922.11;1872106;77;26712;-81
2021/04/27 11:10:28;;;;;;;7.27;5.20;;;;;;;13.55;100.00;100914.42;1872156;77;26216;-81
2021/04/27 11:13:04;;;;;;;7.70;4.73;;;;;;;13.82;100.00;100911.72;1872229;77;26349;-82
2021/04/27 11:15:36;;;;;;;7.60;5.10;;;;;;;13.93;100.00;100896.47;1872343;76;26289;-81
2021/04/27 11:18:16;;;;;;;7.00;4.43;;;;;;;14.24;100.00;100901.50;1872247;76;26216;-81
2021/04/27 11:20:56;;;;;;;7.33;4.03;;;;;;;13.99;100.00;100905.00;1872085;77;26385;-82
2021/04/27 11:23:57;;;;;;;6.83;4.20;;;;;;;14.04;100.00;100897.92;1872139;77;26208;-82
2021/04/27 11:26:55;;;;;;;6.23;3.53;;;;;;;14.18;100.00;100894.33;1872078;77;26291;-82
2021/04/27 11:29:28;;;;;;;5.87;3.30;;;;;;;14.23;100.00;100892.28;1872242;77;26311;-82
2021/04/27 11:32:11;;;;;;;4.37;3.10;;;;;;;14.27;100.00;100887.73;1872191;77;26273;-81
2021/04/27 11:35:00;;;;;;;4.10;3.43;;;;;;;14.39;99.30;100886.68;1872101;77;26310;-82
2021/04/27 11:37:33;;;;;;;3.87;2.50;;;;;;;14.51;100.00;100875.80;1872048;77;26368;-82
2021/04/27 11:40:36;;;;;;;4.47;2.83;;;;;;;14.61;100.00;100878.14;1872093;76;26221;-81
2021/04/27 11:43:10;;;;;;;4.50;2.27;;;;;;;14.48;99.43;100879.80;1872168;77;26243;-82